createdAt,value
2023-04-02T00:02:22.295Z,1.60
2023-04-02T00:05:16.248Z,1.70
2023-04-02T00:07:44.604Z,1.50
2023-04-02T00:10:32.087Z,2.33
2023-04-02T00:13:06.501Z,2.10
2023-04-02T00:15:34.571Z,2.65
2023-04-02T00:18:02.528Z,2.60
2023-04-02T00:20:32.903Z,1.40
2023-04-02T00:22:59.565Z,2.65
2023-04-02T00:25:34.019Z,2.50
2023-04-02T00:28:00.757Z,1.98
2023-04-02T00:30:27.556Z,1.25
2023-04-02T00:32:54.763Z,1.23
2023-04-02T00:35:26.728Z,2.20
2023-04-02T00:37:54.545Z,2.38
2023-04-02T00:40:28.212Z,1.77
2023-04-02T00:42:58.834Z,1.83
2023-04-02T00:45:33.556Z,2.53
2023-04-02T00:48:15.864Z,4.00
2023-04-02T00:50:44.908Z,2.65
2023-04-02T00:53:21.342Z,2.80
2023-04-02T00:55:48.650Z,1.67
2023-04-02T00:58:35.436Z,1.33
2023-04-02T01:01:02.722Z,2.10
2023-04-02T01:03:37.855Z,1.60
2023-04-02T01:06:12.683Z,1.85
2023-04-02T01:09:09.242Z,3.47
2023-04-02T01:11:50.798Z,3.10
2023-04-02T01:14:43.752Z,2.00
2023-04-02T01:17:26.297Z,1.90
2023-04-02T01:20:07.772Z,3.25
2023-04-02T01:22:48.387Z,2.83
2023-04-02T01:25:26.530Z,2.20
2023-04-02T01:28:06.691Z,2.42
2023-04-02T01:30:36.006Z,2.15
2023-04-02T01:33:03.622Z,3.58
2023-04-02T01:35:37.572Z,2.33
2023-04-02T01:38:21.111Z,4.22
2023-04-02T01:40:55.529Z,3.30
2023-04-02T01:43:47.173Z,2.00
2023-04-02T01:46:35.781Z,2.00
2023-04-02T01:49:14.558Z,2.55
2023-04-02T01:51:50.646Z,2.00
2023-04-02T01:54:18.176Z,3.08
2023-04-02T01:56:47.120Z,2.78
2023-04-02T01:59:16.855Z,2.72
2023-04-02T02:01:54.059Z,3.50
2023-04-02T02:04:21.494Z,2.50
2023-04-02T02:06:48.136Z,3.03
2023-04-02T02:09:23.071Z,4.35
2023-04-02T02:11:50.802Z,6.38
2023-04-02T02:14:26.027Z,3.22
2023-04-02T02:16:59.990Z,2.95
2023-04-02T02:19:29.063Z,3.17
2023-04-02T02:22:05.443Z,3.35
2023-04-02T02:24:35.573Z,3.10
2023-04-02T02:27:23.043Z,4.80
2023-04-02T02:30:15.712Z,5.63
2023-04-02T02:33:21.895Z,4.20
2023-04-02T02:35:58.410Z,3.25
2023-04-02T02:39:16.927Z,6.00
2023-04-02T02:42:18.308Z,3.67
2023-04-02T02:44:48.550Z,2.97
2023-04-02T02:47:28.355Z,3.33
2023-04-02T02:49:59.174Z,4.68
2023-04-02T02:52:28.700Z,5.22
2023-04-02T02:55:01.122Z,3.17
2023-04-02T02:57:32.935Z,5.25
2023-04-02T03:00:02.529Z,3.53
2023-04-02T03:02:29.508Z,3.58
2023-04-02T03:04:57.985Z,3.97
2023-04-02T03:07:27.200Z,4.78
2023-04-02T03:10:12.430Z,3.85
2023-04-02T03:13:19.715Z,4.90
2023-04-02T03:16:12.396Z,3.10
2023-04-02T03:19:06.126Z,5.45
2023-04-02T03:21:49.414Z,2.42
2023-04-02T03:24:23.196Z,3.10
2023-04-02T03:26:59.372Z,5.30
2023-04-02T03:29:31.969Z,5.40
2023-04-02T03:32:12.194Z,3.33
2023-04-02T03:34:46.589Z,3.83
2023-04-02T03:37:24.097Z,3.47
2023-04-02T03:40:15.119Z,3.47
2023-04-02T03:42:44.487Z,3.88
2023-04-02T03:45:22.553Z,5.07
2023-04-02T03:48:20.601Z,5.03
2023-04-02T03:50:56.672Z,3.80
2023-04-02T03:53:24.977Z,3.78
2023-04-02T03:55:52.368Z,3.22
2023-04-02T03:58:27.874Z,4.75
2023-04-02T04:01:18.979Z,3.63
2023-04-02T04:03:50.148Z,4.43
2023-04-02T04:06:28.055Z,3.65
2023-04-02T04:08:59.241Z,4.82
2023-04-02T04:11:32.486Z,4.75
2023-04-02T04:14:20.166Z,5.43
2023-04-02T04:16:53.590Z,4.68
2023-04-02T04:19:39.085Z,5.78
2023-04-02T04:22:18.875Z,6.25
2023-04-02T04:24:51.181Z,3.85
2023-04-02T04:27:42.652Z,5.63
2023-04-02T04:30:30.393Z,4.95
2023-04-02T04:33:11.034Z,4.13
2023-04-02T04:35:44.324Z,4.55
2023-04-02T04:38:27.864Z,4.63
2023-04-02T04:41:02.932Z,6.03
2023-04-02T04:44:00.629Z,5.25
2023-04-02T04:46:44.382Z,4.90
2023-04-02T04:49:27.187Z,5.90
2023-04-02T04:52:18.006Z,5.95
2023-04-02T04:54:46.016Z,4.80
2023-04-02T04:57:37.186Z,6.20
2023-04-02T05:00:20.538Z,7.38
2023-04-02T05:02:57.783Z,4.63
2023-04-02T05:05:31.312Z,4.18
2023-04-02T05:08:26.926Z,5.70
2023-04-02T05:11:05.854Z,4.45
2023-04-02T05:13:56.710Z,5.70
2023-04-02T05:16:36.810Z,7.45
2023-04-02T05:19:20.997Z,5.00
2023-04-02T05:22:08.819Z,5.13
2023-04-02T05:24:50.427Z,6.35
2023-04-02T05:27:39.501Z,5.28
2023-04-02T05:30:32.587Z,3.92
2023-04-02T05:33:43.388Z,4.38
2023-04-02T05:36:13.431Z,3.67
2023-04-02T05:38:46.375Z,5.97
2023-04-02T05:41:36.474Z,8.75
2023-04-02T05:44:12.441Z,6.50
2023-04-02T05:47:02.045Z,4.55
2023-04-02T05:49:35.650Z,9.02
2023-04-02T05:52:04.729Z,6.88
2023-04-02T05:54:42.702Z,5.68
2023-04-02T05:57:17.178Z,8.20
2023-04-02T05:59:49.565Z,7.38
2023-04-02T06:02:36.445Z,11.40
2023-04-02T06:05:17.264Z,6.57
2023-04-02T06:07:49.510Z,7.60
2023-04-02T06:10:25.169Z,6.20
2023-04-02T06:12:58.044Z,6.68
2023-04-02T06:15:25.463Z,6.90
2023-04-02T06:17:52.397Z,8.43
2023-04-02T06:20:21.090Z,7.93
2023-04-02T06:23:32.043Z,8.27
2023-04-02T06:26:04.598Z,7.53
2023-04-02T06:29:14.313Z,7.32
2023-04-02T06:31:52.137Z,8.48
2023-04-02T06:34:22.051Z,8.27
2023-04-02T06:36:50.247Z,5.20
2023-04-02T06:39:22.845Z,1.40
2023-04-02T06:42:01.072Z,0.77
2023-04-02T06:44:34.052Z,0.57
2023-04-02T06:47:09.959Z,0.32
2023-04-02T06:50:06.591Z,0.30
2023-04-02T06:52:35.969Z,0.95
2023-04-02T06:55:24.429Z,0.60
2023-04-02T06:57:51.103Z,0.88
2023-04-02T07:00:41.476Z,0.40
2023-04-02T07:03:19.435Z,1.25
2023-04-02T07:05:46.520Z,0.30
2023-04-02T07:08:13.295Z,0.43
2023-04-02T07:10:40.183Z,1.88
2023-04-02T07:13:06.894Z,1.40
2023-04-02T07:15:33.783Z,0.82
2023-04-02T07:18:00.777Z,0.73
2023-04-02T07:20:33.418Z,0.52
2023-04-02T07:23:00.460Z,1.38
2023-04-02T07:25:27.180Z,0.68
2023-04-02T07:27:55.012Z,1.95
2023-04-02T07:30:21.988Z,0.82
2023-04-02T07:32:51.880Z,0.60
2023-04-02T07:35:18.618Z,0.50
2023-04-02T07:37:45.636Z,0.40
2023-04-02T07:40:24.013Z,0.20
2023-04-02T07:42:50.704Z,0.77
2023-04-02T07:45:17.336Z,0.20
2023-04-02T07:47:44.311Z,0.20
2023-04-02T07:50:11.117Z,3.03
2023-04-02T07:52:42.514Z,0.40
2023-04-02T07:55:12.533Z,0.20
2023-04-02T07:57:43.637Z,0.30
2023-04-02T08:00:12.206Z,1.05
2023-04-02T08:02:38.864Z,0.77
2023-04-02T08:05:06.685Z,0.63
2023-04-02T08:07:33.701Z,0.82
2023-04-02T08:10:00.473Z,1.00
2023-04-02T08:12:27.218Z,0.73
2023-04-02T08:14:53.926Z,0.35
2023-04-02T08:17:21.138Z,0.35
2023-04-02T08:19:54.830Z,0.30
2023-04-02T08:22:21.990Z,1.33
2023-04-02T08:24:48.577Z,1.15
2023-04-02T08:27:15.313Z,0.70
2023-04-02T08:29:42.040Z,0.60
2023-04-02T08:32:11.981Z,0.60
2023-04-02T08:34:39.136Z,0.80
2023-04-02T08:37:05.781Z,1.30
2023-04-02T08:39:34.172Z,1.88
2023-04-02T08:42:21.234Z,0.93
2023-04-02T08:45:08.108Z,1.27
2023-04-02T08:47:44.271Z,0.70
2023-04-02T08:50:34.066Z,2.00
2023-04-02T08:53:04.368Z,1.67
2023-04-02T08:55:55.708Z,1.25
2023-04-02T08:58:54.003Z,1.58
2023-04-02T09:01:54.540Z,1.38
2023-04-02T09:04:24.318Z,1.75
2023-04-02T09:06:54.021Z,1.17
2023-04-02T09:09:22.922Z,1.60
2023-04-02T09:11:55.761Z,1.00
2023-04-02T09:14:54.999Z,1.15
2023-04-02T09:17:24.402Z,1.00
2023-04-02T09:20:18.224Z,0.85
2023-04-02T09:22:47.143Z,0.80
2023-04-02T09:25:20.784Z,1.10
2023-04-02T09:27:54.373Z,1.05
2023-04-02T09:30:30.104Z,1.15
2023-04-02T09:33:07.767Z,0.85
2023-04-02T09:35:38.057Z,1.25
2023-04-02T09:38:16.140Z,1.30
2023-04-02T09:40:55.197Z,1.42
2023-04-02T09:43:29.490Z,1.70
2023-04-02T09:46:15.756Z,0.77
2023-04-02T09:48:55.705Z,0.65
2023-04-02T09:51:26.617Z,0.93
2023-04-02T09:54:02.505Z,0.70
2023-04-02T09:56:34.278Z,0.82
2023-04-02T09:59:15.276Z,0.75
2023-04-02T10:01:43.818Z,1.13
2023-04-02T10:04:47.616Z,1.73
2023-04-02T10:07:38.948Z,0.73
2023-04-02T10:10:30.613Z,1.10
2023-04-02T10:13:01.618Z,1.10
2023-04-02T10:15:44.156Z,1.30
2023-04-02T10:18:22.447Z,1.00
2023-04-02T10:20:52.505Z,1.00
2023-04-02T10:23:20.148Z,1.30
2023-04-02T10:26:21.706Z,1.00
2023-04-02T10:29:15.693Z,1.40
2023-04-02T10:31:47.941Z,1.30
2023-04-02T10:34:27.949Z,1.33
2023-04-02T10:37:03.719Z,1.23
2023-04-02T10:40:01.266Z,1.08
2023-04-02T10:42:36.099Z,0.95
2023-04-02T10:45:34.122Z,1.17
2023-04-02T10:48:13.407Z,2.30
2023-04-02T10:51:04.487Z,0.85
2023-04-02T10:54:09.881Z,1.08
2023-04-02T10:56:48.078Z,1.20
2023-04-02T10:59:23.049Z,1.45
2023-04-02T11:01:52.580Z,1.15
2023-04-02T11:04:46.003Z,1.55
2023-04-02T11:07:18.980Z,0.95
2023-04-02T11:09:49.493Z,1.20
2023-04-02T11:12:27.398Z,1.23
2023-04-02T11:14:55.365Z,2.95
2023-04-02T11:17:23.251Z,1.20
2023-04-02T11:19:50.113Z,1.67
2023-04-02T11:22:24.408Z,0.80
2023-04-02T11:24:55.996Z,1.27
2023-04-02T11:27:35.372Z,1.48
2023-04-02T11:30:07.928Z,1.30
2023-04-02T11:32:39.502Z,1.30
2023-04-02T11:35:26.951Z,1.73
2023-04-02T11:37:58.554Z,1.35
2023-04-02T11:40:49.514Z,1.58
2023-04-02T11:43:35.285Z,1.52
2023-04-02T11:46:05.340Z,1.30
2023-04-02T11:48:38.277Z,1.40
2023-04-02T11:51:21.321Z,1.02
2023-04-02T11:53:50.611Z,1.17
2023-04-02T11:56:21.259Z,1.98
2023-04-02T11:59:08.645Z,1.75
2023-04-02T12:01:59.888Z,1.77
2023-04-02T12:04:56.424Z,3.22
2023-04-02T12:07:38.299Z,2.20
2023-04-02T12:10:15.811Z,2.40
2023-04-02T12:12:43.091Z,2.63
2023-04-02T12:15:34.289Z,2.90
2023-04-02T12:18:14.868Z,2.30
2023-04-02T12:20:44.771Z,2.33
2023-04-02T12:23:21.226Z,2.10
2023-04-02T12:25:59.769Z,2.53
2023-04-02T12:28:33.694Z,1.98
2023-04-02T12:31:09.594Z,2.15
2023-04-02T12:33:38.129Z,2.17
2023-04-02T12:36:17.134Z,2.40
2023-04-02T12:38:52.497Z,2.95
2023-04-02T12:41:24.462Z,2.90
2023-04-02T12:44:02.337Z,2.50
2023-04-02T12:46:31.384Z,3.38
2023-04-02T12:49:07.576Z,3.47
2023-04-02T12:51:37.001Z,4.32
2023-04-02T12:54:04.287Z,2.78
2023-04-02T12:56:31.025Z,3.63
2023-04-02T12:58:59.523Z,3.72
2023-04-02T13:01:29.272Z,5.60
2023-04-02T13:04:10.046Z,3.38
2023-04-02T13:06:37.108Z,3.90
2023-04-02T13:09:06.771Z,2.83
2023-04-02T13:11:35.633Z,3.33
2023-04-02T13:14:03.683Z,4.22
2023-04-02T13:16:36.328Z,4.45
2023-04-02T13:19:16.932Z,3.78
2023-04-02T13:21:45.006Z,3.72
2023-04-02T13:24:23.350Z,5.03
2023-04-02T13:26:53.652Z,4.10
2023-04-02T13:29:20.905Z,4.18
2023-04-02T13:31:47.876Z,4.78
2023-04-02T13:34:14.840Z,3.63
2023-04-02T13:36:41.418Z,5.57
2023-04-02T13:39:08.379Z,6.72
2023-04-02T13:41:44.829Z,5.97
2023-04-02T13:44:22.405Z,6.38
2023-04-02T13:46:50.320Z,9.07
2023-04-02T13:49:17.459Z,6.25
2023-04-02T13:51:52.818Z,8.32
2023-04-02T13:54:27.962Z,8.65
2023-04-02T13:59:22.941Z,6.57
2023-04-02T14:01:51.562Z,5.40
2023-04-02T14:04:24.434Z,5.60
2023-04-02T14:07:09.806Z,5.63
2023-04-02T14:09:55.001Z,7.25
2023-04-02T14:12:56.595Z,5.00
2023-04-02T14:15:41.799Z,4.70
2023-04-02T14:18:14.210Z,7.13
2023-04-02T14:20:58.198Z,4.03
2023-04-02T14:23:44.696Z,4.03
2023-04-02T14:26:32.074Z,4.28
2023-04-02T14:29:33.136Z,4.68
2023-04-02T14:32:27.003Z,3.97
2023-04-02T14:35:17.543Z,4.00
2023-04-02T14:38:12.041Z,4.50
2023-04-02T14:40:42.065Z,5.57
2023-04-02T14:43:19.033Z,4.93
2023-04-02T14:46:03.382Z,4.72
2023-04-02T14:48:56.078Z,4.65
2023-04-02T14:51:41.138Z,4.65
2023-04-02T14:54:13.726Z,4.85
2023-04-02T14:56:54.983Z,5.15
2023-04-02T14:59:42.404Z,5.25
2023-04-02T15:02:39.170Z,5.90
2023-04-02T15:05:19.971Z,5.10
2023-04-02T15:08:35.205Z,6.97
2023-04-02T15:11:40.996Z,5.57
2023-04-02T15:14:14.414Z,5.70
2023-04-02T15:16:41.510Z,7.05
2023-04-02T15:19:16.709Z,5.70
2023-04-02T15:21:57.643Z,7.00
2023-04-02T15:25:03.735Z,5.20
2023-04-02T15:27:49.528Z,6.50
2023-04-02T15:30:26.685Z,6.57
2023-04-02T15:32:58.758Z,5.40
2023-04-02T15:35:46.414Z,5.40
2023-04-02T15:38:24.268Z,5.85
2023-04-02T15:41:23.700Z,5.18
2023-04-02T15:44:18.198Z,6.32
2023-04-02T15:47:13.308Z,6.85
2023-04-02T15:49:47.984Z,5.43
2023-04-02T15:52:39.615Z,9.45
2023-04-02T15:55:46.483Z,4.72
2023-04-02T15:58:28.125Z,4.22
2023-04-02T16:01:20.751Z,5.07
2023-04-02T16:04:09.632Z,6.03
2023-04-02T16:06:58.363Z,5.28
2023-04-02T16:09:39.800Z,5.78
2023-04-02T16:12:15.031Z,5.93
2023-04-02T16:17:32.345Z,4.82
2023-04-02T16:20:38.317Z,6.80
2023-04-02T16:23:28.098Z,4.45
2023-04-02T16:26:06.360Z,6.35
2023-04-02T16:28:52.053Z,5.07
2023-04-02T16:31:35.508Z,4.10
2023-04-02T16:34:13.548Z,3.90
2023-04-02T16:36:54.680Z,4.80
2023-04-02T16:39:24.228Z,3.78
2023-04-02T16:41:50.811Z,4.22
2023-04-02T16:44:37.223Z,4.43
2023-04-02T16:47:16.265Z,4.65
2023-04-02T16:50:10.835Z,4.57
2023-04-02T16:53:09.076Z,3.65
2023-04-02T16:56:02.770Z,6.97
2023-04-02T16:58:54.993Z,5.13
2023-04-02T17:01:48.831Z,3.20
2023-04-02T17:04:24.653Z,5.68
2023-04-02T17:07:14.420Z,5.72
2023-04-02T17:09:51.551Z,3.47
2023-04-02T17:12:32.664Z,4.20
2023-04-02T17:15:20.610Z,3.53
2023-04-02T17:18:01.892Z,4.45
2023-04-02T17:20:28.731Z,4.32
2023-04-02T17:22:56.320Z,3.80
2023-04-02T17:25:30.518Z,5.25
2023-04-02T17:28:01.482Z,3.53
2023-04-02T17:30:37.346Z,4.43
2023-04-02T17:33:15.977Z,5.28
2023-04-02T17:35:57.789Z,4.10
2023-04-02T17:38:27.280Z,4.00
2023-04-02T17:41:16.165Z,4.15
2023-04-02T17:44:07.825Z,4.68
2023-04-02T17:46:44.988Z,6.47
2023-04-02T17:49:36.833Z,5.20
2023-04-02T17:52:26.793Z,4.78
2023-04-02T17:55:31.706Z,5.15
2023-04-02T17:58:24.304Z,5.07
2023-04-02T18:00:56.427Z,4.63
2023-04-02T18:03:49.671Z,6.65
2023-04-02T18:06:27.398Z,6.90
2023-04-02T18:09:12.379Z,4.93
2023-04-02T18:12:18.352Z,4.80
2023-04-02T18:15:04.705Z,6.63
2023-04-02T18:17:47.439Z,5.05
2023-04-02T18:20:39.008Z,5.75
2023-04-02T18:23:47.106Z,4.70
2023-04-02T18:26:22.759Z,6.45
2023-04-02T18:28:58.317Z,4.93
2023-04-02T18:32:00.770Z,5.45
2023-04-02T18:35:00.166Z,4.13
2023-04-02T18:37:43.794Z,4.60
2023-04-02T18:40:28.603Z,3.60
2023-04-02T18:43:13.462Z,3.85
2023-04-02T18:46:13.694Z,3.80
2023-04-02T18:48:53.610Z,3.85
2023-04-02T18:51:23.692Z,3.53
2023-04-02T18:54:07.097Z,5.18
2023-04-02T18:56:36.695Z,3.97
2023-04-02T18:59:21.515Z,5.18
2023-04-02T19:01:51.181Z,5.00
2023-04-02T19:04:35.800Z,4.03
2023-04-02T19:07:11.487Z,4.47
2023-04-02T19:09:47.677Z,4.45
2023-04-02T19:12:23.391Z,4.47
2023-04-02T19:14:52.369Z,5.50
2023-04-02T19:17:39.210Z,4.65
2023-04-02T19:20:21.486Z,4.05
2023-04-02T19:23:02.494Z,3.75
2023-04-02T19:25:44.177Z,2.80
2023-04-02T19:28:26.178Z,3.33
2023-04-02T19:31:05.114Z,4.25
2023-04-02T19:33:38.175Z,3.10
2023-04-02T19:36:23.977Z,4.05
2023-04-02T19:39:18.618Z,5.82
2023-04-02T19:41:52.427Z,5.03
2023-04-02T19:44:19.868Z,5.35
2023-04-02T19:46:46.953Z,3.70
2023-04-02T19:49:28.229Z,6.97
2023-04-02T19:51:55.684Z,4.35
2023-04-02T19:54:22.976Z,6.03
2023-04-02T19:56:50.010Z,4.18
2023-04-02T19:59:18.720Z,4.18
2023-04-02T20:01:46.574Z,3.35
2023-04-02T20:04:13.948Z,3.50
2023-04-02T20:06:40.740Z,3.65
2023-04-02T20:09:08.830Z,3.20
2023-04-02T20:11:37.745Z,5.63
2023-04-02T20:14:05.521Z,4.30
2023-04-02T20:16:32.808Z,3.00
2023-04-02T20:18:59.668Z,2.75
2023-04-02T20:21:27.388Z,3.20
2023-04-02T20:23:54.775Z,3.10
2023-04-02T20:26:22.321Z,4.35
2023-04-02T20:28:48.989Z,3.90
2023-04-02T20:31:18.071Z,3.60
2023-04-02T20:33:45.249Z,3.90
2023-04-02T20:36:15.575Z,2.40
2023-04-02T20:38:43.217Z,2.50
2023-04-02T20:41:10.346Z,2.72
2023-04-02T20:43:40.199Z,3.55
2023-04-02T20:46:09.468Z,3.47
2023-04-02T20:48:37.782Z,2.92
2023-04-02T20:51:06.957Z,3.13
2023-04-02T20:53:35.158Z,3.88
2023-04-02T20:56:06.803Z,5.00
2023-04-02T20:58:35.576Z,2.95
2023-04-02T21:01:23.534Z,5.10
2023-04-02T21:03:55.430Z,4.82
2023-04-02T21:06:23.451Z,3.63
2023-04-02T21:08:51.140Z,6.45
2023-04-02T21:11:18.556Z,3.83
2023-04-02T21:13:45.884Z,3.45
2023-04-02T21:16:20.678Z,4.93
2023-04-02T21:18:49.556Z,3.55
2023-04-02T21:21:16.679Z,5.97
2023-04-02T21:23:45.325Z,4.72
2023-04-02T21:26:16.948Z,4.68
2023-04-02T21:28:44.410Z,4.53
2023-04-02T21:31:17.600Z,4.20
2023-04-02T21:33:50.402Z,6.97
2023-04-02T21:36:20.031Z,4.53
2023-04-02T21:38:49.663Z,7.53
2023-04-02T21:41:27.863Z,4.00
2023-04-02T21:43:55.728Z,4.85
2023-04-02T21:46:25.690Z,4.75
2023-04-02T21:48:54.092Z,5.80
2023-04-02T21:51:26.497Z,5.80
2023-04-02T21:53:54.159Z,6.30
2023-04-02T21:56:23.744Z,5.32
2023-04-02T21:58:51.448Z,4.70
2023-04-02T22:01:27.211Z,5.65
2023-04-02T22:03:56.244Z,4.80
2023-04-02T22:06:24.830Z,4.57
2023-04-02T22:09:00.561Z,7.85
2023-04-02T22:11:31.894Z,5.97
2023-04-02T22:13:58.821Z,6.30
2023-04-02T22:16:27.817Z,3.70
2023-04-02T22:18:57.037Z,6.20
2023-04-02T22:21:25.347Z,5.88
2023-04-02T22:23:52.200Z,5.55
2023-04-02T22:26:20.702Z,4.50
2023-04-02T22:28:47.531Z,6.75
2023-04-02T22:31:15.515Z,3.17
2023-04-02T22:33:43.758Z,7.07
2023-04-02T22:36:11.187Z,5.07
2023-04-02T22:38:38.486Z,4.32
2023-04-02T22:41:10.585Z,3.95
2023-04-02T22:43:37.578Z,4.35
2023-04-02T22:46:06.159Z,4.93
2023-04-02T22:48:33.464Z,4.57
2023-04-02T22:51:00.522Z,2.97
2023-04-02T22:53:27.255Z,4.07
2023-04-02T22:55:54.210Z,5.93
2023-04-02T22:58:21.118Z,3.97
2023-04-02T23:00:48.154Z,4.60
2023-04-02T23:03:14.699Z,6.25
2023-04-02T23:05:42.422Z,3.55
2023-04-02T23:08:09.174Z,3.83
2023-04-02T23:10:36.295Z,3.97
2023-04-02T23:13:03.256Z,4.35
2023-04-02T23:15:29.978Z,4.47
2023-04-02T23:17:56.636Z,1.98
2023-04-02T23:20:23.269Z,4.05
2023-04-02T23:22:49.852Z,5.53
2023-04-02T23:25:16.678Z,3.17
2023-04-02T23:27:43.247Z,4.47
2023-04-02T23:30:10.070Z,5.32
2023-04-02T23:32:36.843Z,2.78
2023-04-02T23:35:03.519Z,4.95
2023-04-02T23:37:30.181Z,3.90
2023-04-02T23:39:56.861Z,4.82
2023-04-02T23:45:04.431Z,4.32
2023-04-02T23:47:31.199Z,4.65
2023-04-02T23:50:05.260Z,3.17
2023-04-02T23:52:31.924Z,3.40
2023-04-02T23:54:58.600Z,2.85
2023-04-02T23:57:25.372Z,1.92
2023-04-02T23:59:51.963Z,2.90
